Time;durP1;ratioP1;P1;durP2;ratioP2;P2;SDS_P1;SDS_P2;PMS_P1;PMS_P2;Temp;Humidity;BMP_temperature;BMP_pressure;BME280_temperature;BME280_humidity;BME280_pressure;Samples;Min_cycle;Max_cycle;Signal;HPM_P1;HPM_P2
2023/10/06 00:02:07;;;;;;;10.77;4.50;;;;;;;;;;4994483;28;20069;-67
2023/10/06 00:04:38;;;;;;;11.20;4.73;;;;;;;;;;4994428;28;20030;-67
2023/10/06 00:07:07;;;;;;;11.63;4.50;;;;;;;;;;4994634;28;20327;-67
2023/10/06 00:09:32;;;;;;;16.15;4.63;;;;;;;;;;4994194;28;20486;-67
2023/10/06 00:11:59;;;;;;;11.60;4.38;;;;;;;;;;4994561;28;20023;-67
2023/10/06 00:14:40;;;;;;;9.13;4.25;;;;;;;;;;4994229;28;20050;-67
2023/10/06 00:17:09;;;;;;;9.50;3.97;;;;;;;;;;4994492;28;20029;-67
2023/10/06 00:19:36;;;;;;;7.10;4.65;;;;;;;;;;4994386;28;20018;-67
2023/10/06 00:22:18;;;;;;;10.75;4.38;;;;;;;;;;4994167;28;20022;-67
2023/10/06 00:24:50;;;;;;;8.60;4.45;;;;;;;;;;4994072;28;20022;-67
2023/10/06 00:27:18;;;;;;;;;;;;;;;;;;4994613;28;20363;-67
2023/10/06 00:29:44;;;;;;;15.27;4.68;;;;;;;;;;4993986;28;19915;-67
2023/10/06 00:32:21;;;;;;;13.60;4.75;;;;;;;;;;4993964;28;20018;-67
2023/10/06 00:34:47;;;;;;;7.70;4.10;;;;;;;;;;4994056;28;20030;-67
2023/10/06 00:37:13;;;;;;;10.20;4.40;;;;;;;;;;4994244;28;20018;-67
2023/10/06 00:39:39;;;;;;;11.85;4.57;;;;;;;;;;4993892;28;20026;-67
2023/10/06 00:42:05;;;;;;;9.27;3.97;;;;;;;;;;4993934;28;20455;-67
2023/10/06 00:44:31;;;;;;;9.25;4.63;;;;;;;;;;4993856;28;20025;-67
2023/10/06 00:46:59;;;;;;;7.93;4.50;;;;;;;;;;4994173;28;20015;-67
2023/10/06 00:49:28;;;;;;;7.93;4.25;;;;;;;;;;4993893;28;20076;-67
2023/10/06 00:51:54;;;;;;;8.32;4.45;;;;;;;;;;4993971;28;20057;-66
2023/10/06 00:54:20;;;;;;;6.55;3.70;;;;;;;;;;4993753;28;20391;-66
2023/10/06 00:56:46;;;;;;;8.63;4.22;;;;;;;;;;4993765;28;20537;-66
2023/10/06 00:59:12;;;;;;;12.15;4.82;;;;;;;;;;4995486;28;20110;-66
2023/10/06 01:01:38;;;;;;;8.30;4.10;;;;;;;;;;4997754;28;20022;-66
2023/10/06 01:06:35;;;;;;;12.82;4.13;;;;;;;;;;4997680;28;20378;-67
2023/10/06 01:09:13;;;;;;;7.25;3.78;;;;;;;;;;4997653;28;20046;-66
2023/10/06 01:11:44;;;;;;;5.55;3.35;;;;;;;;;;4997608;28;20073;-66
2023/10/06 01:14:09;;;;;;;5.72;3.50;;;;;;;;;;4997567;28;20022;-66
2023/10/06 01:16:35;;;;;;;8.88;3.33;;;;;;;;;;4996256;28;20475;-66
2023/10/06 01:22:22;;;;;;;6.82;3.72;;;;;;;;;;4956566;29;20039;-66
2023/10/06 01:24:47;;;;;;;6.45;3.60;;;;;;;;;;4956585;29;20599;-66
2023/10/06 01:27:12;;;;;;;10.93;3.88;;;;;;;;;;4979374;28;20034;-66
2023/10/06 01:29:38;;;;;;;7.23;3.50;;;;;;;;;;4997324;28;20018;-66
2023/10/06 01:32:04;;;;;;;8.20;3.67;;;;;;;;;;4997476;28;20255;-67
2023/10/06 01:34:34;;;;;;;6.32;3.65;;;;;;;;;;4997153;28;20022;-66
2023/10/06 01:37:03;;;;;;;5.72;3.20;;;;;;;;;;4997141;28;20019;-66
2023/10/06 01:39:31;;;;;;;6.15;3.65;;;;;;;;;;4997320;28;20160;-66
2023/10/06 01:41:57;;;;;;;7.70;3.63;;;;;;;;;;4996973;28;20548;-67
2023/10/06 01:44:22;;;;;;;8.48;3.90;;;;;;;;;;4997022;28;20042;-66
2023/10/06 01:46:53;;;;;;;10.25;3.38;;;;;;;;;;4997212;28;20030;-66
2023/10/06 01:49:21;;;;;;;9.25;3.72;;;;;;;;;;4996960;28;20096;-66
2023/10/06 01:51:50;;;;;;;10.18;3.33;;;;;;;;;;4996881;28;20038;-67
2023/10/06 01:54:16;;;;;;;8.82;3.30;;;;;;;;;;4997048;28;20486;-66
2023/10/06 01:56:44;;;;;;;7.18;3.83;;;;;;;;;;4996820;28;20022;-66
2023/10/06 01:59:10;;;;;;;7.38;3.20;;;;;;;;;;4996777;28;20474;-66
2023/10/06 02:01:39;;;;;;;6.93;3.75;;;;;;;;;;4996721;28;20089;-67
2023/10/06 02:04:07;;;;;;;5.82;3.70;;;;;;;;;;4996615;28;20030;-67
2023/10/06 02:06:33;;;;;;;5.22;3.33;;;;;;;;;;4996498;28;20022;-67
2023/10/06 02:08:59;;;;;;;10.52;3.58;;;;;;;;;;4995994;28;20105;-67
2023/10/06 02:11:30;;;;;;;5.00;2.83;;;;;;;;;;4996495;28;20093;-67
2023/10/06 02:13:55;;;;;;;5.57;3.28;;;;;;;;;;4996443;28;20029;-67
2023/10/06 02:16:26;;;;;;;7.50;3.42;;;;;;;;;;4996647;28;20030;-67
2023/10/06 02:18:53;;;;;;;6.47;3.78;;;;;;;;;;4996586;28;20026;-67
2023/10/06 02:21:24;;;;;;;4.18;3.03;;;;;;;;;;4996243;28;20474;-67
2023/10/06 02:23:51;;;;;;;4.63;3.00;;;;;;;;;;4996562;28;20051;-67
2023/10/06 02:26:16;;;;;;;5.82;3.35;;;;;;;;;;4996204;28;20015;-67
2023/10/06 02:28:43;;;;;;;5.47;3.15;;;;;;;;;;4996455;28;20019;-67
2023/10/06 02:31:10;;;;;;;6.50;3.60;;;;;;;;;;4996133;28;20097;-67
2023/10/06 02:33:39;;;;;;;4.82;3.00;;;;;;;;;;4996396;28;20534;-67
2023/10/06 02:36:15;;;;;;;5.95;3.55;;;;;;;;;;4996314;28;20085;-67
2023/10/06 02:38:46;;;;;;;12.15;3.72;;;;;;;;;;4996250;28;20029;-67
2023/10/06 02:41:11;;;;;;;9.02;3.42;;;;;;;;;;4995950;28;20018;-67
2023/10/06 02:43:40;;;;;;;6.88;3.75;;;;;;;;;;4995999;28;20085;-67
2023/10/06 02:46:08;;;;;;;5.40;3.20;;;;;;;;;;4995901;28;20467;-67
2023/10/06 02:48:33;;;;;;;5.95;3.13;;;;;;;;;;4996091;28;20466;-67
2023/10/06 02:51:01;;;;;;;5.87;2.93;;;;;;;;;;4995797;28;20026;-67
2023/10/06 02:53:29;;;;;;;7.10;2.90;;;;;;;;;;4995755;28;20415;-67
2023/10/06 02:55:59;;;;;;;6.25;3.38;;;;;;;;;;4995568;28;20036;-67
2023/10/06 02:58:30;;;;;;;6.85;3.28;;;;;;;;;;4995873;28;20098;-67
2023/10/06 03:00:56;;;;;;;5.53;2.92;;;;;;;;;;4995492;28;20026;-67
2023/10/06 03:03:26;;;;;;;7.15;3.50;;;;;;;;;;4995778;28;20041;-67
2023/10/06 03:05:52;;;;;;;5.38;2.92;;;;;;;;;;4995723;28;20018;-67
2023/10/06 03:08:20;;;;;;;5.30;3.25;;;;;;;;;;4995697;28;20105;-67
2023/10/06 03:10:48;;;;;;;5.50;2.80;;;;;;;;;;4995283;28;20422;-67
2023/10/06 03:13:16;;;;;;;5.50;2.70;;;;;;;;;;4995426;28;20022;-67
2023/10/06 03:15:47;;;;;;;5.40;2.55;;;;;;;;;;4995258;28;20026;-67
2023/10/06 03:18:13;;;;;;;4.57;2.70;;;;;;;;;;4995291;28;20062;-67
2023/10/06 03:20:46;;;;;;;3.70;2.50;;;;;;;;;;4993475;28;20116;-67
2023/10/06 03:23:16;;;;;;;9.05;2.95;;;;;;;;;;4995437;28;20462;-67
2023/10/06 03:25:42;;;;;;;4.75;2.90;;;;;;;;;;4995156;28;20459;-67
2023/10/06 03:28:10;;;;;;;11.27;2.97;;;;;;;;;;4995360;28;20545;-67
2023/10/06 03:30:36;;;;;;;4.00;2.60;;;;;;;;;;4995030;28;20029;-67
2023/10/06 03:33:12;;;;;;;3.25;2.05;;;;;;;;;;4995182;28;20026;-67
2023/10/06 03:35:57;;;;;;;3.83;2.47;;;;;;;;;;4995050;28;20034;-67
2023/10/06 03:43:13;;;;;;;5.27;3.00;;;;;;;;;;4994837;28;20014;-67
2023/10/06 03:45:40;;;;;;;3.97;2.45;;;;;;;;;;4994808;28;20073;-67
2023/10/06 03:48:09;;;;;;;6.65;3.05;;;;;;;;;;4994977;28;20022;-67
2023/10/06 03:50:38;;;;;;;4.15;2.53;;;;;;;;;;4994947;28;20493;-67
2023/10/06 03:53:10;;;;;;;6.65;2.60;;;;;;;;;;4994571;28;20109;-67
2023/10/06 03:55:42;;;;;;;5.32;2.65;;;;;;;;;;4994817;28;20030;-67
2023/10/06 03:58:09;;;;;;;7.65;3.05;;;;;;;;;;4993313;28;20038;-67
2023/10/06 04:00:38;;;;;;;5.43;3.10;;;;;;;;;;4994452;28;20022;-67
2023/10/06 04:03:05;;;;;;;7.00;3.22;;;;;;;;;;4994396;28;20018;-67
2023/10/06 04:05:37;;;;;;;5.25;3.15;;;;;;;;;;4994673;28;20022;-67
2023/10/06 04:08:07;;;;;;;4.82;2.75;;;;;;;;;;4994380;28;20506;-67
2023/10/06 04:10:34;;;;;;;5.63;3.05;;;;;;;;;;4994223;28;20124;-67
2023/10/06 04:12:59;;;;;;;4.10;2.63;;;;;;;;;;4994255;28;20030;-67
2023/10/06 04:15:26;;;;;;;4.67;2.80;;;;;;;;;;4994306;28;20029;-67
2023/10/06 04:17:51;;;;;;;5.63;2.78;;;;;;;;;;4994221;28;20802;-67
2023/10/06 04:20:17;;;;;;;6.27;3.13;;;;;;;;;;4994068;28;20026;-67
2023/10/06 04:22:42;;;;;;;4.32;2.67;;;;;;;;;;4994242;28;20251;-67
2023/10/06 04:25:10;;;;;;;4.88;2.95;;;;;;;;;;4994148;28;20026;-66
2023/10/06 04:27:36;;;;;;;4.10;2.47;;;;;;;;;;4994108;28;20021;-66
2023/10/06 04:30:04;;;;;;;4.35;2.53;;;;;;;;;;4994327;28;20543;-66
2023/10/06 04:32:29;;;;;;;6.80;2.88;;;;;;;;;;4994163;28;20101;-67
2023/10/06 04:34:54;;;;;;;4.55;2.90;;;;;;;;;;4993985;28;20438;-66
2023/10/06 04:37:20;;;;;;;5.03;2.37;;;;;;;;;;4994021;28;20014;-66
2023/10/06 04:39:45;;;;;;;4.00;2.30;;;;;;;;;;4993869;28;20264;-66
2023/10/06 04:42:10;;;;;;;4.07;2.80;;;;;;;;;;4994037;28;20383;-66
2023/10/06 04:44:35;;;;;;;4.37;2.60;;;;;;;;;;4993865;28;20267;-66
2023/10/06 04:47:00;;;;;;;5.17;2.63;;;;;;;;;;4994154;28;20018;-66
2023/10/06 04:49:26;;;;;;;4.17;3.00;;;;;;;;;;4993908;28;20249;-66
2023/10/06 04:51:51;;;;;;;4.55;2.28;;;;;;;;;;4993785;28;20241;-66
2023/10/06 04:54:16;;;;;;;4.55;2.58;;;;;;;;;;4993768;28;20030;-66
2023/10/06 04:56:42;;;;;;;4.77;2.70;;;;;;;;;;4993848;28;20547;-66
2023/10/06 04:59:11;;;;;;;7.97;3.28;;;;;;;;;;4993805;28;20598;-66
2023/10/06 05:01:36;;;;;;;3.83;2.67;;;;;;;;;;4993983;28;20493;-66
2023/10/06 05:04:06;;;;;;;4.93;2.33;;;;;;;;;;4992475;28;20109;-66
2023/10/06 05:06:32;;;;;;;4.15;2.17;;;;;;;;;;4993728;28;20050;-66
2023/10/06 05:08:57;;;;;;;4.50;2.67;;;;;;;;;;4993482;28;20050;-66
2023/10/06 05:11:23;;;;;;;3.03;2.05;;;;;;;;;;4993652;28;20022;-66
2023/10/06 05:13:52;;;;;;;3.63;2.30;;;;;;;;;;4993643;28;20022;-66
2023/10/06 05:16:19;;;;;;;3.53;2.22;;;;;;;;;;4993888;28;20026;-66
2023/10/06 05:18:45;;;;;;;3.20;2.40;;;;;;;;;;4993889;28;20165;-66
2023/10/06 05:21:11;;;;;;;3.80;2.22;;;;;;;;;;4993774;28;20497;-66
2023/10/06 05:23:36;;;;;;;7.65;2.58;;;;;;;;;;4993816;28;20379;-66
2023/10/06 05:26:08;;;;;;;3.40;2.30;;;;;;;;;;4993800;28;20022;-66
2023/10/06 05:28:34;;;;;;;5.25;2.22;;;;;;;;;;4993510;28;20026;-66
2023/10/06 05:30:59;;;;;;;4.50;2.40;;;;;;;;;;4993568;28;20113;-66
2023/10/06 05:33:27;;;;;;;3.70;2.30;;;;;;;;;;4993454;28;20093;-66
2023/10/06 05:35:52;;;;;;;3.33;2.30;;;;;;;;;;4993482;28;20022;-66
2023/10/06 05:38:17;;;;;;;3.20;1.80;;;;;;;;;;4993713;28;20026;-66
2023/10/06 05:40:46;;;;;;;2.93;2.03;;;;;;;;;;4993432;28;20389;-66
2023/10/06 05:43:12;;;;;;;3.20;2.00;;;;;;;;;;4993471;28;20299;-66
2023/10/06 05:45:39;;;;;;;3.90;1.92;;;;;;;;;;4996762;28;20470;-67
2023/10/06 05:48:07;;;;;;;3.60;2.05;;;;;;;;;;4996943;28;20378;-66
2023/10/06 05:50:35;;;;;;;2.60;1.70;;;;;;;;;;4996929;28;20145;-66
2023/10/06 05:53:17;;;;;;;3.35;1.90;;;;;;;;;;4997142;28;20422;-66
2023/10/06 05:55:42;;;;;;;2.65;1.85;;;;;;;;;;4996733;28;20030;-66
2023/10/06 05:58:14;;;;;;;2.60;2.13;;;;;;;;;;4997166;28;20118;-66
2023/10/06 06:00:52;;;;;;;2.50;1.88;;;;;;;;;;4996723;28;20051;-66
2023/10/06 06:03:21;;;;;;;2.90;2.15;;;;;;;;;;4996749;28;20019;-66
2023/10/06 06:06:02;;;;;;;5.15;2.33;;;;;;;;;;4996877;28;20025;-66
2023/10/06 06:08:30;;;;;;;3.65;2.47;;;;;;;;;;4996881;28;20019;-66
2023/10/06 06:10:55;;;;;;;7.07;2.20;;;;;;;;;;4996349;28;20046;-66
2023/10/06 06:13:20;;;;;;;15.73;2.70;;;;;;;;;;4996490;28;20026;-66
2023/10/06 06:15:47;;;;;;;4.45;2.13;;;;;;;;;;4996667;28;20460;-66
2023/10/06 06:18:13;;;;;;;4.35;2.17;;;;;;;;;;4996427;28;20022;-66
2023/10/06 06:20:41;;;;;;;3.13;1.92;;;;;;;;;;4996240;28;20058;-66
2023/10/06 06:23:08;;;;;;;3.40;2.03;;;;;;;;;;4996539;28;20532;-66
2023/10/06 06:25:35;;;;;;;3.42;2.10;;;;;;;;;;4996554;28;20509;-66
2023/10/06 06:28:00;;;;;;;3.17;2.00;;;;;;;;;;4996212;28;20120;-66
2023/10/06 06:30:26;;;;;;;2.63;2.00;;;;;;;;;;4996207;28;20177;-66
2023/10/06 06:32:55;;;;;;;3.53;1.98;;;;;;;;;;4996136;28;20105;-66
2023/10/06 06:35:21;;;;;;;2.67;1.75;;;;;;;;;;4996326;28;20044;-66
2023/10/06 06:37:51;;;;;;;2.67;1.95;;;;;;;;;;4996041;28;20045;-66
2023/10/06 06:40:19;;;;;;;3.38;2.08;;;;;;;;;;4995973;28;20018;-66
2023/10/06 06:42:45;;;;;;;4.97;2.05;;;;;;;;;;4996148;28;20360;-66
2023/10/06 06:45:13;;;;;;;5.40;1.85;;;;;;;;;;4995907;28;20018;-66
2023/10/06 06:47:38;;;;;;;2.67;2.00;;;;;;;;;;4996155;28;20031;-67
2023/10/06 06:50:06;;;;;;;3.57;2.10;;;;;;;;;;4995742;28;20049;-66
2023/10/06 06:52:32;;;;;;;3.95;1.90;;;;;;;;;;4996043;28;20632;-66
2023/10/06 06:54:58;;;;;;;4.28;2.15;;;;;;;;;;4995362;28;20034;-66
2023/10/06 06:57:23;;;;;;;7.53;2.47;;;;;;;;;;4995368;28;20030;-66
2023/10/06 06:59:49;;;;;;;6.53;2.33;;;;;;;;;;4995547;28;20471;-66
2023/10/06 07:02:14;;;;;;;5.88;2.90;;;;;;;;;;4995856;28;20018;-66
2023/10/06 07:04:39;;;;;;;5.70;2.73;;;;;;;;;;4995574;28;20018;-66
2023/10/06 07:07:04;;;;;;;5.53;2.67;;;;;;;;;;4995490;28;20244;-66
2023/10/06 07:09:30;;;;;;;4.68;2.72;;;;;;;;;;4995331;28;20405;-66
2023/10/06 07:11:55;;;;;;;5.10;2.63;;;;;;;;;;4995402;28;20026;-66
2023/10/06 07:14:20;;;;;;;11.47;4.97;;;;;;;;;;4995604;28;20027;-66
2023/10/06 07:16:47;;;;;;;8.82;3.60;;;;;;;;;;4995304;28;20454;-66
2023/10/06 07:19:14;;;;;;;8.15;3.92;;;;;;;;;;4995353;28;20076;-66
2023/10/06 07:21:39;;;;;;;8.40;4.15;;;;;;;;;;4995384;28;20032;-66
2023/10/06 07:24:05;;;;;;;11.80;4.93;;;;;;;;;;4995174;28;20097;-66
2023/10/06 07:26:31;;;;;;;14.52;4.07;;;;;;;;;;4995053;28;20011;-66
2023/10/06 07:28:58;;;;;;;13.30;5.20;;;;;;;;;;4995052;28;20041;-66
2023/10/06 07:31:26;;;;;;;9.90;3.95;;;;;;;;;;4995013;28;20037;-66
2023/10/06 07:33:52;;;;;;;8.27;4.13;;;;;;;;;;4995245;28;20049;-66
2023/10/06 07:36:17;;;;;;;10.52;4.60;;;;;;;;;;4995185;28;20022;-66
2023/10/06 07:38:43;;;;;;;14.65;4.50;;;;;;;;;;4994894;28;20030;-66
2023/10/06 07:41:09;;;;;;;9.30;3.63;;;;;;;;;;4994771;28;20022;-66
2023/10/06 07:43:35;;;;;;;7.30;3.45;;;;;;;;;;4995068;28;20046;-66
2023/10/06 07:46:07;;;;;;;9.75;3.95;;;;;;;;;;4994838;28;20128;-66
2023/10/06 07:48:39;;;;;;;8.23;3.78;;;;;;;;;;4994710;28;20018;-66
2023/10/06 07:51:13;;;;;;;7.22;3.50;;;;;;;;;;4995086;28;20057;-66
2023/10/06 07:53:38;;;;;;;11.20;4.00;;;;;;;;;;4994936;28;20450;-66
2023/10/06 07:56:07;;;;;;;9.32;3.58;;;;;;;;;;4994770;28;20027;-66
2023/10/06 07:58:33;;;;;;;11.48;4.20;;;;;;;;;;4994544;28;20030;-66
2023/10/06 08:01:02;;;;;;;7.30;3.67;;;;;;;;;;4994665;28;20537;-66
2023/10/06 08:03:27;;;;;;;8.15;3.55;;;;;;;;;;4994726;28;20019;-66
2023/10/06 08:05:52;;;;;;;9.52;3.80;;;;;;;;;;4994444;28;20479;-66
2023/10/06 08:08:18;;;;;;;8.63;3.87;;;;;;;;;;4994339;28;20018;-66
2023/10/06 08:10:43;;;;;;;7.63;3.27;;;;;;;;;;4994251;28;20045;-66
2023/10/06 08:13:10;;;;;;;7.88;3.40;;;;;;;;;;4994599;28;20085;-66
2023/10/06 08:15:38;;;;;;;13.10;3.95;;;;;;;;;;4994550;28;20063;-66
2023/10/06 08:18:06;;;;;;;9.73;3.70;;;;;;;;;;4994452;28;20030;-66
2023/10/06 08:20:32;;;;;;;9.63;3.40;;;;;;;;;;4994349;28;20037;-67
2023/10/06 08:22:57;;;;;;;8.48;3.78;;;;;;;;;;4994149;28;20054;-66
2023/10/06 08:25:24;;;;;;;9.23;3.50;;;;;;;;;;4994150;28;20050;-66
2023/10/06 08:27:50;;;;;;;8.88;3.40;;;;;;;;;;4994148;28;20030;-66
2023/10/06 08:30:16;;;;;;;9.20;2.95;;;;;;;;;;4994319;28;20026;-66
2023/10/06 08:32:45;;;;;;;9.70;3.10;;;;;;;;;;4994264;28;20030;-67
2023/10/06 08:35:13;;;;;;;9.27;3.72;;;;;;;;;;4994052;28;20105;-67
2023/10/06 08:37:39;;;;;;;10.90;4.00;;;;;;;;;;4994253;28;20034;-67
2023/10/06 08:40:06;;;;;;;9.98;3.63;;;;;;;;;;4993880;28;20026;-66
2023/10/06 08:42:32;;;;;;;8.80;3.10;;;;;;;;;;4993988;28;20030;-67
2023/10/06 08:44:57;;;;;;;14.05;3.78;;;;;;;;;;4993888;28;20019;-66
2023/10/06 08:47:24;;;;;;;8.53;3.20;;;;;;;;;;4993948;28;20045;-67
2023/10/06 08:49:50;;;;;;;11.85;4.43;;;;;;;;;;4994111;28;20527;-67
2023/10/06 08:52:18;;;;;;;11.82;3.85;;;;;;;;;;4994086;28;20018;-67
2023/10/06 08:54:45;;;;;;;9.82;3.30;;;;;;;;;;4994024;28;20030;-66
2023/10/06 08:57:11;;;;;;;13.15;4.22;;;;;;;;;;4994003;28;20379;-66
2023/10/06 08:59:37;;;;;;;11.25;3.92;;;;;;;;;;4993737;28;20019;-67
2023/10/06 09:02:02;;;;;;;12.80;3.85;;;;;;;;;;4993800;28;20040;-67
2023/10/06 09:04:37;;;;;;;15.00;3.67;;;;;;;;;;4993762;28;20026;-66
2023/10/06 09:07:09;;;;;;;10.32;3.58;;;;;;;;;;4993971;28;20492;-66
2023/10/06 09:09:34;;;;;;;15.82;4.18;;;;;;;;;;4993447;28;20084;-67
2023/10/06 09:11:59;;;;;;;14.73;3.67;;;;;;;;;;4993645;28;20030;-67
2023/10/06 09:14:26;;;;;;;14.18;4.28;;;;;;;;;;4993590;28;20074;-66
2023/10/06 09:16:52;;;;;;;12.50;3.97;;;;;;;;;;4993893;28;20505;-67
2023/10/06 09:19:18;;;;;;;16.00;4.10;;;;;;;;;;4995226;28;20018;-66
2023/10/06 09:22:02;;;;;;;13.05;4.18;;;;;;;;;;4997345;28;20069;-66
2023/10/06 09:24:29;;;;;;;16.20;4.13;;;;;;;;;;4997409;28;20422;-66
2023/10/06 09:26:55;;;;;;;14.38;3.67;;;;;;;;;;4997599;28;20463;-67
2023/10/06 09:29:32;;;;;;;15.68;4.10;;;;;;;;;;4997598;28;20022;-66
2023/10/06 09:31:58;;;;;;;14.82;3.92;;;;;;;;;;4997570;28;20437;-67
2023/10/06 09:34:23;;;;;;;13.57;4.00;;;;;;;;;;4997188;28;20052;-67
2023/10/06 09:36:50;;;;;;;15.50;3.95;;;;;;;;;;4997194;28;20034;-66
2023/10/06 09:39:25;;;;;;;15.35;3.67;;;;;;;;;;4997144;28;20356;-67
2023/10/06 09:41:51;;;;;;;11.55;3.33;;;;;;;;;;4997040;28;20037;-66
2023/10/06 09:44:18;;;;;;;11.85;3.50;;;;;;;;;;4997292;28;20022;-67
2023/10/06 09:46:45;;;;;;;11.18;3.33;;;;;;;;;;4997034;28;20019;-67
2023/10/06 09:49:18;;;;;;;11.55;3.30;;;;;;;;;;4996916;28;20097;-67
2023/10/06 09:51:43;;;;;;;12.15;3.15;;;;;;;;;;4996896;28;20022;-67
2023/10/06 09:54:09;;;;;;;11.35;3.22;;;;;;;;;;4996894;28;20125;-67
2023/10/06 09:56:35;;;;;;;11.38;3.45;;;;;;;;;;4996805;28;20026;-67
2023/10/06 09:59:01;;;;;;;8.57;3.20;;;;;;;;;;4996780;28;20026;-67
2023/10/06 10:01:28;;;;;;;12.93;3.58;;;;;;;;;;4996679;28;20018;-67
2023/10/06 10:03:55;;;;;;;12.82;3.90;;;;;;;;;;4996978;28;20390;-67
2023/10/06 10:06:21;;;;;;;12.95;3.00;;;;;;;;;;4996687;28;20019;-67
2023/10/06 10:08:46;;;;;;;12.30;3.65;;;;;;;;;;4996431;28;20470;-67
2023/10/06 10:11:16;;;;;;;10.77;3.70;;;;;;;;;;4996698;28;20034;-67
2023/10/06 10:13:51;;;;;;;13.73;3.53;;;;;;;;;;4996559;28;20097;-67
2023/10/06 10:16:25;;;;;;;13.45;3.63;;;;;;;;;;4996568;28;20027;-67
2023/10/06 10:19:11;;;;;;;8.68;3.13;;;;;;;;;;4996395;28;20560;-67
2023/10/06 10:21:37;;;;;;;14.88;3.60;;;;;;;;;;4996021;28;20478;-67
2023/10/06 10:24:05;;;;;;;10.98;3.33;;;;;;;;;;4996325;28;20014;-67
2023/10/06 10:26:35;;;;;;;14.07;3.83;;;;;;;;;;4996255;28;20042;-67
2023/10/06 10:29:09;;;;;;;12.55;3.53;;;;;;;;;;4996217;28;20520;-67
2023/10/06 10:31:38;;;;;;;14.07;3.70;;;;;;;;;;4995896;28;20029;-67
2023/10/06 10:34:03;;;;;;;10.82;3.40;;;;;;;;;;4996164;28;20081;-67
2023/10/06 10:36:29;;;;;;;12.10;3.30;;;;;;;;;;4996351;28;20034;-67
2023/10/06 10:38:59;;;;;;;10.93;3.38;;;;;;;;;;4996319;28;20030;-67
2023/10/06 10:41:26;;;;;;;16.15;4.13;;;;;;;;;;4995903;28;20022;-67
2023/10/06 10:43:51;;;;;;;11.82;3.45;;;;;;;;;;4996188;28;20018;-67
2023/10/06 10:46:38;;;;;;;13.35;3.35;;;;;;;;;;4996190;28;20088;-67
2023/10/06 10:49:03;;;;;;;15.05;4.22;;;;;;;;;;4995869;28;20471;-67
2023/10/06 10:51:33;;;;;;;17.05;4.53;;;;;;;;;;4996082;28;20022;-67
2023/10/06 10:53:59;;;;;;;11.88;4.38;;;;;;;;;;4995742;28;20018;-67
2023/10/06 10:56:33;;;;;;;15.88;4.70;;;;;;;;;;4995982;28;20028;-67
2023/10/06 10:58:59;;;;;;;14.07;4.30;;;;;;;;;;4995950;28;20026;-67
2023/10/06 11:01:29;;;;;;;20.58;4.72;;;;;;;;;;4995614;28;20023;-67
2023/10/06 11:04:13;;;;;;;16.10;4.70;;;;;;;;;;4995863;28;20526;-67
2023/10/06 11:06:38;;;;;;;15.32;4.82;;;;;;;;;;4995800;28;20081;-67
2023/10/06 11:09:12;;;;;;;13.10;4.90;;;;;;;;;;4995366;28;20050;-67
2023/10/06 11:11:40;;;;;;;13.82;4.60;;;;;;;;;;4995722;28;20030;-67
2023/10/06 11:14:05;;;;;;;18.80;4.43;;;;;;;;;;4995402;28;20029;-67
2023/10/06 11:16:32;;;;;;;14.93;4.00;;;;;;;;;;4995417;28;20466;-67
2023/10/06 11:18:57;;;;;;;15.85;5.15;;;;;;;;;;4995596;28;20058;-67
2023/10/06 11:21:25;;;;;;;16.20;5.38;;;;;;;;;;4995303;28;20058;-67
2023/10/06 11:23:50;;;;;;;17.55;5.18;;;;;;;;;;4995433;28;20018;-67
2023/10/06 11:26:28;;;;;;;15.53;5.60;;;;;;;;;;4995186;28;20097;-67
2023/10/06 11:28:53;;;;;;;14.90;5.38;;;;;;;;;;4995357;28;20036;-67
2023/10/06 11:31:18;;;;;;;15.75;5.93;;;;;;;;;;4995357;28;20029;-67
2023/10/06 11:33:44;;;;;;;14.20;5.73;;;;;;;;;;4995278;28;20466;-67
2023/10/06 11:36:09;;;;;;;17.05;6.35;;;;;;;;;;4995036;28;20026;-67
2023/10/06 11:38:36;;;;;;;20.17;7.10;;;;;;;;;;4994933;28;20041;-67
2023/10/06 11:41:01;;;;;;;17.63;6.22;;;;;;;;;;4994875;28;20466;-67
2023/10/06 11:43:26;;;;;;;17.13;6.63;;;;;;;;;;4994685;28;20014;-67
2023/10/06 11:46:01;;;;;;;21.65;7.15;;;;;;;;;;4995044;28;20038;-67
2023/10/06 11:48:33;;;;;;;17.67;6.07;;;;;;;;;;4995037;28;20092;-67
2023/10/06 11:50:58;;;;;;;;;;;;;;;;;;4995400;28;20085;-67
2023/10/06 11:53:24;;;;;;;17.42;6.88;;;;;;;;;;4994890;28;19905;-67
2023/10/06 11:55:49;;;;;;;23.17;6.90;;;;;;;;;;4994607;28;20072;-67
2023/10/06 11:58:29;;;;;;;18.67;6.73;;;;;;;;;;4994616;28;20482;-67
2023/10/06 12:00:55;;;;;;;24.30;9.23;;;;;;;;;;4994453;28;20022;-67
2023/10/06 12:03:31;;;;;;;28.73;11.40;;;;;;;;;;4994534;28;20019;-67
2023/10/06 12:05:57;;;;;;;25.92;10.82;;;;;;;;;;4994497;28;20026;-67
2023/10/06 12:08:22;;;;;;;25.90;9.27;;;;;;;;;;4994471;28;20059;-67
2023/10/06 12:10:50;;;;;;;30.37;9.87;;;;;;;;;;4994246;28;20046;-67
2023/10/06 12:13:19;;;;;;;27.27;9.82;;;;;;;;;;4994405;28;20728;-67
2023/10/06 12:15:45;;;;;;;24.15;10.18;;;;;;;;;;4994353;28;20101;-67
2023/10/06 12:18:13;;;;;;;26.20;10.00;;;;;;;;;;4994502;28;20111;-67
2023/10/06 12:20:40;;;;;;;30.23;11.40;;;;;;;;;;4993196;28;20030;-67
2023/10/06 12:23:05;;;;;;;30.90;12.45;;;;;;;;;;4994195;28;20014;-67
2023/10/06 12:25:30;;;;;;;30.77;12.13;;;;;;;;;;4994130;28;20026;-67
2023/10/06 12:27:56;;;;;;;38.35;14.98;;;;;;;;;;4994364;28;20045;-67
2023/10/06 12:30:22;;;;;;;33.63;13.95;;;;;;;;;;4994291;28;20378;-67
2023/10/06 12:32:47;;;;;;;34.42;12.98;;;;;;;;;;4994196;28;20026;-67
2023/10/06 12:35:18;;;;;;;32.05;12.68;;;;;;;;;;4994147;28;20104;-67
2023/10/06 12:37:43;;;;;;;26.98;11.77;;;;;;;;;;4994257;28;20029;-67
2023/10/06 12:40:09;;;;;;;30.33;11.77;;;;;;;;;;4994066;28;20026;-67
2023/10/06 12:42:38;;;;;;;22.23;9.15;;;;;;;;;;4993847;28;20248;-67
2023/10/06 12:45:08;;;;;;;23.45;9.95;;;;;;;;;;4993894;28;20022;-67
2023/10/06 12:47:33;;;;;;;24.40;10.20;;;;;;;;;;4993953;28;20445;-67
2023/10/06 12:50:04;;;;;;;28.95;9.88;;;;;;;;;;4993894;28;20050;-67
2023/10/06 12:52:31;;;;;;;28.67;10.48;;;;;;;;;;4993953;28;20022;-67
2023/10/06 12:54:56;;;;;;;25.60;9.73;;;;;;;;;;4998140;28;20030;-67
2023/10/06 12:57:21;;;;;;;24.43;9.53;;;;;;;;;;4997948;28;20010;-67
2023/10/06 12:59:48;;;;;;;23.20;8.70;;;;;;;;;;4997831;28;20252;-67
2023/10/06 13:02:13;;;;;;;22.52;8.52;;;;;;;;;;4997776;28;20057;-67
2023/10/06 13:04:38;;;;;;;20.30;8.77;;;;;;;;;;4997899;28;20073;-67
2023/10/06 13:07:04;;;;;;;22.63;9.30;;;;;;;;;;4997779;28;20244;-67
2023/10/06 13:09:34;;;;;;;22.65;9.25;;;;;;;;;;4997715;28;20144;-67
2023/10/06 13:12:00;;;;;;;28.65;10.48;;;;;;;;;;4997664;28;20022;-67
2023/10/06 13:14:28;;;;;;;26.52;10.15;;;;;;;;;;4997690;28;20027;-67
2023/10/06 13:16:53;;;;;;;23.23;10.02;;;;;;;;;;4997555;28;20033;-67
2023/10/06 13:19:19;;;;;;;26.80;10.38;;;;;;;;;;4997504;28;20141;-67
2023/10/06 13:21:44;;;;;;;24.38;10.23;;;;;;;;;;4997475;28;20101;-67
2023/10/06 13:24:09;;;;;;;26.53;10.37;;;;;;;;;;4997550;28;20470;-67
2023/10/06 13:26:40;;;;;;;26.60;10.10;;;;;;;;;;4997690;28;20018;-67
2023/10/06 13:29:06;;;;;;;19.95;8.73;;;;;;;;;;4997630;28;20275;-67
2023/10/06 13:31:31;;;;;;;25.85;10.23;;;;;;;;;;4997334;28;20022;-67
2023/10/06 13:33:56;;;;;;;30.93;12.63;;;;;;;;;;4997311;28;20463;-67
2023/10/06 13:36:22;;;;;;;25.77;11.23;;;;;;;;;;4997502;28;20023;-67
2023/10/06 13:38:47;;;;;;;29.83;11.48;;;;;;;;;;4997414;28;20467;-67
2023/10/06 13:41:12;;;;;;;29.47;13.10;;;;;;;;;;4997162;28;20026;-67
2023/10/06 13:43:37;;;;;;;34.17;12.03;;;;;;;;;;4997139;28;20097;-67
2023/10/06 13:46:03;;;;;;;30.48;11.13;;;;;;;;;;4997022;28;20550;-67
2023/10/06 13:48:31;;;;;;;33.72;13.35;;;;;;;;;;4997014;28;20072;-67
2023/10/06 13:50:59;;;;;;;29.40;11.23;;;;;;;;;;4996922;28;20030;-67
2023/10/06 13:53:27;;;;;;;29.90;10.95;;;;;;;;;;4997188;28;20462;-67
2023/10/06 13:55:56;;;;;;;28.17;11.90;;;;;;;;;;4996695;28;20022;-67
2023/10/06 13:58:25;;;;;;;34.83;11.95;;;;;;;;;;4997111;28;20474;-67
2023/10/06 14:00:50;;;;;;;27.73;10.73;;;;;;;;;;4996659;28;20109;-67
2023/10/06 14:03:16;;;;;;;25.80;9.65;;;;;;;;;;4996819;28;20050;-67
2023/10/06 14:05:42;;;;;;;29.88;11.77;;;;;;;;;;4996257;28;20048;-67
2023/10/06 14:08:08;;;;;;;24.10;10.27;;;;;;;;;;4996656;28;20475;-67
2023/10/06 14:10:36;;;;;;;23.13;10.32;;;;;;;;;;4996465;28;20125;-67
2023/10/06 14:13:17;;;;;;;28.17;11.30;;;;;;;;;;4996516;28;20027;-67
2023/10/06 14:18:15;;;;;;;28.45;11.27;;;;;;;;;;4996780;28;20015;-67
2023/10/06 14:20:43;;;;;;;30.42;11.88;;;;;;;;;;4996573;28;20483;-67
2023/10/06 14:23:12;;;;;;;31.25;11.32;;;;;;;;;;4996641;28;20092;-67
2023/10/06 14:25:38;;;;;;;23.95;10.60;;;;;;;;;;4996614;28;20511;-67
2023/10/06 14:28:03;;;;;;;22.67;9.98;;;;;;;;;;4996534;28;20025;-67
2023/10/06 14:30:30;;;;;;;24.08;9.50;;;;;;;;;;4996534;28;20377;-67
2023/10/06 14:33:17;;;;;;;27.67;10.73;;;;;;;;;;4996132;28;20030;-67
2023/10/06 14:46:36;;;;;;;21.58;8.90;;;;;;;;;;4996220;28;20041;-67
2023/10/06 14:49:13;;;;;;;19.13;7.72;;;;;;;;;;4996166;28;20577;-67
2023/10/06 14:51:38;;;;;;;19.30;7.60;;;;;;;;;;4996220;28;20022;-67
2023/10/06 14:54:04;;;;;;;21.17;8.80;;;;;;;;;;4995721;28;20479;-67
2023/10/06 14:56:30;;;;;;;19.35;8.30;;;;;;;;;;4995975;28;20026;-67
2023/10/06 14:58:56;;;;;;;20.40;7.93;;;;;;;;;;4995989;28;20505;-67
2023/10/06 15:01:21;;;;;;;19.30;7.95;;;;;;;;;;4995599;28;20053;-67
2023/10/06 15:03:46;;;;;;;18.80;7.53;;;;;;;;;;4995668;28;20023;-67